sensor_id;sensor_type;location;lat;lon;timestamp;pressure;altitude;pressure_sealevel;temperature;humidity
61037;BME280;72210;47.076;15.430;2024-01-16T00:01:42;96050.22;;;-0.35;53.85
61037;BME280;72210;47.076;15.430;2024-01-16T00:04:09;96057.78;;;-0.32;52.32
61037;BME280;72210;47.076;15.430;2024-01-16T00:06:39;96061.88;;;-0.28;51.94
61037;BME280;72210;47.076;15.430;2024-01-16T00:09:14;96059.28;;;-0.26;50.59
61037;BME280;72210;47.076;15.430;2024-01-16T00:11:42;96071.22;;;-0.27;51.58
61037;BME280;72210;47.076;15.430;2024-01-16T00:14:10;96071.38;;;-0.31;51.27
61037;BME280;72210;47.076;15.430;2024-01-16T00:16:44;96069.69;;;-0.31;50.40
61037;BME280;72210;47.076;15.430;2024-01-16T00:19:13;96083.28;;;-0.30;50.03
61037;BME280;72210;47.076;15.430;2024-01-16T00:21:44;96086.03;;;-0.35;49.27
61037;BME280;72210;47.076;15.430;2024-01-16T00:24:12;96091.31;;;-0.40;50.88
61037;BME280;72210;47.076;15.430;2024-01-16T00:26:39;96094.75;;;-0.41;49.66
61037;BME280;72210;47.076;15.430;2024-01-16T00:29:06;96112.66;;;-0.41;49.03
61037;BME280;72210;47.076;15.430;2024-01-16T00:31:34;96104.22;;;-0.43;48.64
61037;BME280;72210;47.076;15.430;2024-01-16T00:34:06;96108.50;;;-0.43;49.40
61037;BME280;72210;47.076;15.430;2024-01-16T00:36:33;96108.72;;;-0.49;49.94
61037;BME280;72210;47.076;15.430;2024-01-16T00:39:01;96114.56;;;-0.46;48.70
61037;BME280;72210;47.076;15.430;2024-01-16T00:41:28;96119.44;;;-0.40;47.89
61037;BME280;72210;47.076;15.430;2024-01-16T00:43:55;96120.44;;;-0.44;47.54
61037;BME280;72210;47.076;15.430;2024-01-16T00:46:23;96129.69;;;-0.40;47.81
61037;BME280;72210;47.076;15.430;2024-01-16T00:48:50;96131.63;;;-0.46;49.12
61037;BME280;72210;47.076;15.430;2024-01-16T00:51:19;96127.66;;;-0.55;48.81
61037;BME280;72210;47.076;15.430;2024-01-16T00:53:47;96134.56;;;-0.57;47.00
61037;BME280;72210;47.076;15.430;2024-01-16T00:56:15;96137.19;;;-0.59;46.64
61037;BME280;72210;47.076;15.430;2024-01-16T00:58:43;96146.34;;;-0.53;45.57
61037;BME280;72210;47.076;15.430;2024-01-16T01:01:11;96146.34;;;-0.53;51.96
61037;BME280;72210;47.076;15.430;2024-01-16T01:03:38;96162.81;;;-0.60;53.62
61037;BME280;72210;47.076;15.430;2024-01-16T01:06:06;96163.22;;;-0.73;60.92
61037;BME280;72210;47.076;15.430;2024-01-16T01:08:35;96172.38;;;-0.92;71.54
61037;BME280;72210;47.076;15.430;2024-01-16T01:11:02;96177.19;;;-1.08;81.99
61037;BME280;72210;47.076;15.430;2024-01-16T01:13:30;96182.59;;;-1.17;84.71
61037;BME280;72210;47.076;15.430;2024-01-16T01:15:59;96176.94;;;-1.27;89.40
61037;BME280;72210;47.076;15.430;2024-01-16T01:18:28;96195.25;;;-1.41;97.91
61037;BME280;72210;47.076;15.430;2024-01-16T01:20:56;96199.75;;;-1.49;100.00
61037;BME280;72210;47.076;15.430;2024-01-16T01:23:23;96211.88;;;-1.56;100.00
61037;BME280;72210;47.076;15.430;2024-01-16T01:25:52;96212.94;;;-1.63;100.00
61037;BME280;72210;47.076;15.430;2024-01-16T01:28:20;96223.34;;;-1.69;100.00
61037;BME280;72210;47.076;15.430;2024-01-16T01:30:47;96225.13;;;-1.73;100.00
61037;BME280;72210;47.076;15.430;2024-01-16T01:33:14;96216.22;;;-1.88;100.00
61037;BME280;72210;47.076;15.430;2024-01-16T01:35:42;96220.00;;;-2.01;100.00
61037;BME280;72210;47.076;15.430;2024-01-16T01:38:10;96228.69;;;-2.08;100.00
61037;BME280;72210;47.076;15.430;2024-01-16T01:40:37;96222.19;;;-2.19;100.00
61037;BME280;72210;47.076;15.430;2024-01-16T01:43:22;96226.59;;;-2.25;100.00
61037;BME280;72210;47.076;15.430;2024-01-16T01:46:01;96229.34;;;-2.31;100.00
61037;BME280;72210;47.076;15.430;2024-01-16T01:48:35;96234.69;;;-2.41;100.00
61037;BME280;72210;47.076;15.430;2024-01-16T01:51:03;96230.66;;;-2.49;100.00
61037;BME280;72210;47.076;15.430;2024-01-16T01:53:32;96241.84;;;-2.55;100.00
61037;BME280;72210;47.076;15.430;2024-01-16T01:56:03;96244.41;;;-2.57;100.00
61037;BME280;72210;47.076;15.430;2024-01-16T01:58:33;96231.78;;;-2.61;100.00
61037;BME280;72210;47.076;15.430;2024-01-16T02:01:01;96232.66;;;-2.61;100.00
61037;BME280;72210;47.076;15.430;2024-01-16T02:03:31;96243.72;;;-2.62;100.00
61037;BME280;72210;47.076;15.430;2024-01-16T02:06:00;96236.22;;;-2.68;100.00
61037;BME280;72210;47.076;15.430;2024-01-16T02:08:27;96253.16;;;-2.65;100.00
61037;BME280;72210;47.076;15.430;2024-01-16T02:10:56;96243.09;;;-2.70;100.00
61037;BME280;72210;47.076;15.430;2024-01-16T02:13:24;96243.16;;;-2.73;100.00
61037;BME280;72210;47.076;15.430;2024-01-16T02:15:54;96259.38;;;-2.77;100.00
61037;BME280;72210;47.076;15.430;2024-01-16T02:18:21;96263.03;;;-2.88;100.00
61037;BME280;72210;47.076;15.430;2024-01-16T02:20:49;96266.47;;;-2.89;100.00
61037;BME280;72210;47.076;15.430;2024-01-16T02:23:21;96263.94;;;-2.90;100.00
61037;BME280;72210;47.076;15.430;2024-01-16T02:25:53;96266.66;;;-2.96;100.00
61037;BME280;72210;47.076;15.430;2024-01-16T02:28:20;96278.75;;;-3.04;100.00
61037;BME280;72210;47.076;15.430;2024-01-16T02:30:48;96265.38;;;-3.16;100.00
61037;BME280;72210;47.076;15.430;2024-01-16T02:33:15;96271.44;;;-3.20;100.00
61037;BME280;72210;47.076;15.430;2024-01-16T02:35:43;96277.38;;;-3.19;100.00
61037;BME280;72210;47.076;15.430;2024-01-16T02:38:11;96280.75;;;-3.19;100.00
61037;BME280;72210;47.076;15.430;2024-01-16T02:40:40;96273.13;;;-3.20;100.00
61037;BME280;72210;47.076;15.430;2024-01-16T02:43:07;96276.56;;;-3.21;100.00
61037;BME280;72210;47.076;15.430;2024-01-16T02:45:34;96283.47;;;-3.27;100.00
61037;BME280;72210;47.076;15.430;2024-01-16T02:48:01;96282.66;;;-3.29;100.00
61037;BME280;72210;47.076;15.430;2024-01-16T02:50:29;96281.84;;;-3.29;100.00
61037;BME280;72210;47.076;15.430;2024-01-16T02:52:57;96293.75;;;-3.31;100.00
61037;BME280;72210;47.076;15.430;2024-01-16T02:55:24;96304.13;;;-3.40;100.00
61037;BME280;72210;47.076;15.430;2024-01-16T02:57:53;96292.22;;;-3.38;100.00
61037;BME280;72210;47.076;15.430;2024-01-16T03:00:20;96302.38;;;-3.37;100.00
61037;BME280;72210;47.076;15.430;2024-01-16T03:02:48;96301.44;;;-3.34;100.00
61037;BME280;72210;47.076;15.430;2024-01-16T03:05:16;96303.13;;;-3.33;100.00
61037;BME280;72210;47.076;15.430;2024-01-16T03:07:44;96305.72;;;-3.35;100.00
61037;BME280;72210;47.076;15.430;2024-01-16T03:10:11;96320.97;;;-3.33;100.00
61037;BME280;72210;47.076;15.430;2024-01-16T03:12:40;96322.69;;;-3.34;100.00
61037;BME280;72210;47.076;15.430;2024-01-16T03:15:10;96319.31;;;-3.36;100.00
61037;BME280;72210;47.076;15.430;2024-01-16T03:17:37;96324.44;;;-3.37;100.00
61037;BME280;72210;47.076;15.430;2024-01-16T03:20:06;96321.22;;;-3.46;100.00
61037;BME280;72210;47.076;15.430;2024-01-16T03:22:34;96329.78;;;-3.50;100.00
61037;BME280;72210;47.076;15.430;2024-01-16T03:25:02;96325.59;;;-3.52;100.00
61037;BME280;72210;47.076;15.430;2024-01-16T03:27:29;96329.00;;;-3.53;100.00
61037;BME280;72210;47.076;15.430;2024-01-16T03:29:58;96327.44;;;-3.61;100.00
61037;BME280;72210;47.076;15.430;2024-01-16T03:32:27;96336.03;;;-3.65;100.00
61037;BME280;72210;47.076;15.430;2024-01-16T03:34:54;96337.72;;;-3.65;100.00
61037;BME280;72210;47.076;15.430;2024-01-16T03:37:22;96334.41;;;-3.69;100.00
61037;BME280;72210;47.076;15.430;2024-01-16T03:39:49;96341.22;;;-3.69;100.00
61037;BME280;72210;47.076;15.430;2024-01-16T03:42:20;96340.31;;;-3.68;100.00
61037;BME280;72210;47.076;15.430;2024-01-16T03:44:49;96332.66;;;-3.67;100.00
61037;BME280;72210;47.076;15.430;2024-01-16T03:47:16;96338.69;;;-3.71;100.00
61037;BME280;72210;47.076;15.430;2024-01-16T03:49:46;96353.13;;;-3.73;100.00
61037;BME280;72210;47.076;15.430;2024-01-16T03:52:14;96349.78;;;-3.75;100.00
61037;BME280;72210;47.076;15.430;2024-01-16T03:54:43;96358.34;;;-3.77;100.00
61037;BME280;72210;47.076;15.430;2024-01-16T03:57:11;96359.28;;;-3.83;100.00
61037;BME280;72210;47.076;15.430;2024-01-16T03:59:39;96361.94;;;-3.89;100.00
61037;BME280;72210;47.076;15.430;2024-01-16T04:02:09;96352.59;;;-3.89;100.00
61037;BME280;72210;47.076;15.430;2024-01-16T04:04:36;96372.16;;;-3.91;100.00
61037;BME280;72210;47.076;15.430;2024-01-16T04:07:05;96379.00;;;-3.93;100.00
61037;BME280;72210;47.076;15.430;2024-01-16T04:09:33;96374.03;;;-4.01;100.00
61037;BME280;72210;47.076;15.430;2024-01-16T04:12:00;96373.22;;;-4.03;100.00
61037;BME280;72210;47.076;15.430;2024-01-16T04:14:28;96374.84;;;-3.99;100.00
61037;BME280;72210;47.076;15.430;2024-01-16T04:16:55;96381.63;;;-3.99;100.00
61037;BME280;72210;47.076;15.430;2024-01-16T04:19:22;96383.38;;;-4.03;100.00
61037;BME280;72210;47.076;15.430;2024-01-16T04:21:50;96391.97;;;-4.08;100.00
61037;BME280;72210;47.076;15.430;2024-01-16T04:24:21;96379.34;;;-4.13;100.00
61037;BME280;72210;47.076;15.430;2024-01-16T04:26:49;96390.38;;;-4.14;100.00
61037;BME280;72210;47.076;15.430;2024-01-16T04:29:17;96399.72;;;-4.15;100.00
61037;BME280;72210;47.076;15.430;2024-01-16T04:31:45;96396.34;;;-4.18;100.00
61037;BME280;72210;47.076;15.430;2024-01-16T04:34:12;96395.56;;;-4.20;100.00
61037;BME280;72210;47.076;15.430;2024-01-16T04:36:40;96403.22;;;-4.22;100.00
61037;BME280;72210;47.076;15.430;2024-01-16T04:39:08;96406.59;;;-4.21;100.00
61037;BME280;72210;47.076;15.430;2024-01-16T04:41:37;96411.63;;;-4.20;100.00
61037;BME280;72210;47.076;15.430;2024-01-16T04:44:04;96419.16;;;-4.13;100.00
61037;BME280;72210;47.076;15.430;2024-01-16T04:46:31;96420.13;;;-4.19;100.00
61037;BME280;72210;47.076;15.430;2024-01-16T04:48:58;96421.81;;;-4.20;100.00
61037;BME280;72210;47.076;15.430;2024-01-16T04:51:26;96420.97;;;-4.20;100.00
61037;BME280;72210;47.076;15.430;2024-01-16T04:53:54;96414.25;;;-4.24;100.00
61037;BME280;72210;47.076;15.430;2024-01-16T04:56:21;96422.78;;;-4.25;100.00
61037;BME280;72210;47.076;15.430;2024-01-16T04:58:51;96428.75;;;-4.29;100.00
61037;BME280;72210;47.076;15.430;2024-01-16T05:01:18;96431.31;;;-4.31;100.00
61037;BME280;72210;47.076;15.430;2024-01-16T05:03:47;96435.63;;;-4.35;100.00
61037;BME280;72210;47.076;15.430;2024-01-16T05:06:14;96439.84;;;-4.35;100.00
61037;BME280;72210;47.076;15.430;2024-01-16T05:08:42;96440.72;;;-4.35;100.00
61037;BME280;72210;47.076;15.430;2024-01-16T05:11:10;96444.19;;;-4.40;100.00
61037;BME280;72210;47.076;15.430;2024-01-16T05:13:37;96459.53;;;-4.46;100.00
61037;BME280;72210;47.076;15.430;2024-01-16T05:16:07;96447.72;;;-4.51;100.00
61037;BME280;72210;47.076;15.430;2024-01-16T05:18:34;96445.22;;;-4.52;100.00
61037;BME280;72210;47.076;15.430;2024-01-16T05:21:01;96446.94;;;-4.56;100.00
61037;BME280;72210;47.076;15.430;2024-01-16T05:23:30;96447.88;;;-4.60;100.00
61037;BME280;72210;47.076;15.430;2024-01-16T05:25:57;96448.78;;;-4.64;100.00
61037;BME280;72210;47.076;15.430;2024-01-16T05:28:25;96446.28;;;-4.67;100.00
61037;BME280;72210;47.076;15.430;2024-01-16T05:30:53;96455.56;;;-4.64;100.00
61037;BME280;72210;47.076;15.430;2024-01-16T05:33:22;96463.16;;;-4.61;100.00
61037;BME280;72210;47.076;15.430;2024-01-16T05:35:49;96473.28;;;-4.60;100.00
61037;BME280;72210;47.076;15.430;2024-01-16T05:38:16;96483.38;;;-4.55;100.00
61037;BME280;72210;47.076;15.430;2024-01-16T05:40:44;96465.59;;;-4.55;100.00
61037;BME280;72210;47.076;15.430;2024-01-16T05:43:13;96473.09;;;-4.49;100.00
61037;BME280;72210;47.076;15.430;2024-01-16T05:45:41;96472.28;;;-4.49;100.00
61037;BME280;72210;47.076;15.430;2024-01-16T05:48:09;96468.09;;;-4.52;100.00
61037;BME280;72210;47.076;15.430;2024-01-16T05:50:38;96489.25;;;-4.52;100.00
61037;BME280;72210;47.076;15.430;2024-01-16T05:53:05;96492.66;;;-4.53;100.00
61037;BME280;72210;47.076;15.430;2024-01-16T05:55:32;96491.00;;;-4.55;100.00
61037;BME280;72210;47.076;15.430;2024-01-16T05:58:00;96502.94;;;-4.62;100.00
61037;BME280;72210;47.076;15.430;2024-01-16T06:00:27;96506.41;;;-4.66;100.00
61037;BME280;72210;47.076;15.430;2024-01-16T06:02:54;96496.28;;;-4.69;100.00
61037;BME280;72210;47.076;15.430;2024-01-16T06:05:22;96495.38;;;-4.66;100.00
61037;BME280;72210;47.076;15.430;2024-01-16T06:07:53;96507.16;;;-4.61;100.00
61037;BME280;72210;47.076;15.430;2024-01-16T06:10:20;96506.28;;;-4.57;100.00
61037;BME280;72210;47.076;15.430;2024-01-16T06:12:47;96508.84;;;-4.58;100.00
61037;BME280;72210;47.076;15.430;2024-01-16T06:15:15;96515.66;;;-4.62;100.00
61037;BME280;72210;47.076;15.430;2024-01-16T06:17:42;96513.09;;;-4.62;100.00
61037;BME280;72210;47.076;15.430;2024-01-16T06:20:10;96525.03;;;-4.65;100.00
61037;BME280;72210;47.076;15.430;2024-01-16T06:22:38;96522.53;;;-4.70;100.00
61037;BME280;72210;47.076;15.430;2024-01-16T06:25:07;96523.41;;;-4.74;100.00
61037;BME280;72210;47.076;15.430;2024-01-16T06:27:35;96523.47;;;-4.77;100.00
61037;BME280;72210;47.076;15.430;2024-01-16T06:30:05;96539.69;;;-4.88;100.00
61037;BME280;72210;47.076;15.430;2024-01-16T06:32:32;96543.06;;;-4.87;100.00
61037;BME280;72210;47.076;15.430;2024-01-16T06:35:01;96532.91;;;-4.87;100.00
61037;BME280;72210;47.076;15.430;2024-01-16T06:37:29;96538.88;;;-4.91;100.00
61037;BME280;72210;47.076;15.430;2024-01-16T06:39:56;96546.50;;;-4.91;100.00
61037;BME280;72210;47.076;15.430;2024-01-16T06:42:28;96552.44;;;-4.92;100.00
61037;BME280;72210;47.076;15.430;2024-01-16T06:44:56;96559.16;;;-4.88;100.00
61037;BME280;72210;47.076;15.430;2024-01-16T06:47:24;96555.75;;;-4.87;100.00
61037;BME280;72210;47.076;15.430;2024-01-16T06:49:51;96550.63;;;-4.82;100.00
61037;BME280;72210;47.076;15.430;2024-01-16T06:52:19;96559.84;;;-4.74;100.00
61037;BME280;72210;47.076;15.430;2024-01-16T06:54:47;96562.31;;;-4.67;100.00
61037;BME280;72210;47.076;15.430;2024-01-16T06:57:15;96563.94;;;-4.63;100.00
61037;BME280;72210;47.076;15.430;2024-01-16T06:59:44;96575.78;;;-4.62;100.00
61037;BME280;72210;47.076;15.430;2024-01-16T07:02:12;96579.09;;;-4.56;100.00
61037;BME280;72210;47.076;15.430;2024-01-16T07:04:40;96583.19;;;-4.44;100.00
61037;BME280;72210;47.076;15.430;2024-01-16T07:07:07;96589.84;;;-4.37;100.00
61037;BME280;72210;47.076;15.430;2024-01-16T07:09:35;96588.97;;;-4.34;100.00
61037;BME280;72210;47.076;15.430;2024-01-16T07:12:04;96594.06;;;-4.34;100.00
61037;BME280;72210;47.076;15.430;2024-01-16T07:14:32;96601.69;;;-4.34;100.00
61037;BME280;72210;47.076;15.430;2024-01-16T07:17:03;96607.63;;;-4.35;100.00
61037;BME280;72210;47.076;15.430;2024-01-16T07:19:32;96605.09;;;-4.37;100.00
61037;BME280;72210;47.076;15.430;2024-01-16T07:22:00;96610.06;;;-4.26;100.00
61037;BME280;72210;47.076;15.430;2024-01-16T07:24:29;96613.41;;;-4.22;100.00
61037;BME280;72210;47.076;15.430;2024-01-16T07:26:57;96618.41;;;-4.15;100.00
61037;BME280;72210;47.076;15.430;2024-01-16T07:29:25;96630.19;;;-4.09;100.00
61037;BME280;72210;47.076;15.430;2024-01-16T07:31:55;96621.72;;;-4.09;100.00
61037;BME280;72210;47.076;15.430;2024-01-16T07:34:24;96617.31;;;-3.98;100.00
61037;BME280;72210;47.076;15.430;2024-01-16T07:36:53;96613.75;;;-3.85;100.00
61037;BME280;72210;47.076;15.430;2024-01-16T07:39:21;96628.00;;;-3.74;100.00
61037;BME280;72210;47.076;15.430;2024-01-16T07:41:48;96635.50;;;-3.67;100.00
61037;BME280;72210;47.076;15.430;2024-01-16T07:44:18;96644.78;;;-3.63;100.00
61037;BME280;72210;47.076;15.430;2024-01-16T07:46:48;96637.94;;;-3.59;100.00
61037;BME280;72210;47.076;15.430;2024-01-16T07:49:15;96649.59;;;-3.44;100.00
61037;BME280;72210;47.076;15.430;2024-01-16T07:51:45;96646.06;;;-3.34;100.00
61037;BME280;72210;47.076;15.430;2024-01-16T07:54:13;96647.63;;;-3.28;100.00
61037;BME280;72210;47.076;15.430;2024-01-16T07:56:40;96658.59;;;-3.21;100.00
61037;BME280;72210;47.076;15.430;2024-01-16T07:59:08;96646.53;;;-3.12;100.00
61037;BME280;72210;47.076;15.430;2024-01-16T08:01:35;96651.53;;;-3.07;100.00
61037;BME280;72210;47.076;15.430;2024-01-16T08:04:02;96651.34;;;-2.96;100.00
61037;BME280;72210;47.076;15.430;2024-01-16T08:06:30;96660.47;;;-2.84;100.00
61037;BME280;72210;47.076;15.430;2024-01-16T08:09:00;96659.34;;;-2.68;100.00
61037;BME280;72210;47.076;15.430;2024-01-16T08:11:27;96668.50;;;-2.58;100.00
61037;BME280;72210;47.076;15.430;2024-01-16T08:13:56;96662.56;;;-2.60;100.00
61037;BME280;72210;47.076;15.430;2024-01-16T08:16:23;96657.41;;;-2.57;100.00
61037;BME280;72210;47.076;15.430;2024-01-16T08:18:50;96663.25;;;-2.48;100.00
61037;BME280;72210;47.076;15.430;2024-01-16T08:21:18;96651.13;;;-2.39;100.00
61037;BME280;72210;47.076;15.430;2024-01-16T08:23:45;96660.38;;;-2.31;100.00
61037;BME280;72210;47.076;15.430;2024-01-16T08:26:14;96664.22;;;-2.13;98.30
61037;BME280;72210;47.076;15.430;2024-01-16T08:28:41;96667.22;;;-1.94;95.19
61037;BME280;72210;47.076;15.430;2024-01-16T08:31:09;96670.78;;;-0.25;84.12
61037;BME280;72210;47.076;15.430;2024-01-16T08:33:37;96666.66;;;2.77;62.99
61037;BME280;72210;47.076;15.430;2024-01-16T08:36:12;96658.03;;;5.28;49.83
61037;BME280;72210;47.076;15.430;2024-01-16T08:38:40;96656.88;;;7.28;45.01
61037;BME280;72210;47.076;15.430;2024-01-16T08:41:07;96662.59;;;9.05;40.21
61037;BME280;72210;47.076;15.430;2024-01-16T08:43:36;96653.44;;;10.66;35.99
61037;BME280;72210;47.076;15.430;2024-01-16T08:46:04;96650.31;;;12.14;33.31
61037;BME280;72210;47.076;15.430;2024-01-16T08:48:31;96636.75;;;13.31;31.69
61037;BME280;72210;47.076;15.430;2024-01-16T08:50:59;96636.50;;;14.28;29.74
61037;BME280;72210;47.076;15.430;2024-01-16T08:53:30;96646.88;;;14.99;29.02
61037;BME280;72210;47.076;15.430;2024-01-16T08:55:57;96646.41;;;15.62;27.49
61037;BME280;72210;47.076;15.430;2024-01-16T08:58:25;96642.16;;;16.46;26.23
61037;BME280;72210;47.076;15.430;2024-01-16T09:00:54;96639.72;;;17.09;25.15
61037;BME280;72210;47.076;15.430;2024-01-16T09:03:21;96636.00;;;18.00;24.40
61037;BME280;72210;47.076;15.430;2024-01-16T09:05:49;96640.56;;;18.58;23.52
61037;BME280;72210;47.076;15.430;2024-01-16T09:08:17;96641.19;;;19.03;22.77
61037;BME280;72210;47.076;15.430;2024-01-16T09:10:47;96641.41;;;19.67;21.76
61037;BME280;72210;47.076;15.430;2024-01-16T09:13:14;96647.81;;;20.06;21.50
61037;BME280;72210;47.076;15.430;2024-01-16T09:15:42;96642.69;;;20.52;20.76
61037;BME280;72210;47.076;15.430;2024-01-16T09:18:12;96649.06;;;21.06;20.19
61037;BME280;72210;47.076;15.430;2024-01-16T09:20:41;96639.53;;;21.43;19.52
61037;BME280;72210;47.076;15.430;2024-01-16T09:23:08;96644.50;;;21.69;18.98
61037;BME280;72210;47.076;15.430;2024-01-16T09:25:36;96653.84;;;21.95;18.92
61037;BME280;72210;47.076;15.430;2024-01-16T09:28:03;96641.06;;;22.28;18.81
61037;BME280;72210;47.076;15.430;2024-01-16T09:30:30;96647.22;;;22.44;17.79
61037;BME280;72210;47.076;15.430;2024-01-16T09:32:58;96653.03;;;22.09;18.11
61037;BME280;72210;47.076;15.430;2024-01-16T09:35:27;96656.00;;;21.76;17.88
61037;BME280;72210;47.076;15.430;2024-01-16T09:37:54;96652.25;;;21.47;18.80
61037;BME280;72210;47.076;15.430;2024-01-16T09:40:21;96654.22;;;21.45;18.39
61037;BME280;72210;47.076;15.430;2024-01-16T09:42:49;96656.72;;;21.70;18.15
61037;BME280;72210;47.076;15.430;2024-01-16T09:45:20;96662.84;;;21.71;17.90
61037;BME280;72210;47.076;15.430;2024-01-16T09:47:50;96660.53;;;22.05;17.20
61037;BME280;72210;47.076;15.430;2024-01-16T09:50:18;96658.09;;;22.49;17.52
61037;BME280;72210;47.076;15.430;2024-01-16T09:52:48;96659.22;;;22.91;16.65
61037;BME280;72210;47.076;15.430;2024-01-16T09:55:16;96646.19;;;22.96;17.07
61037;BME280;72210;47.076;15.430;2024-01-16T09:57:45;96649.81;;;21.84;17.26
61037;BME280;72210;47.076;15.430;2024-01-16T10:00:16;96654.28;;;20.51;17.97
61037;BME280;72210;47.076;15.430;2024-01-16T10:02:45;96656.56;;;19.65;18.87
61037;BME280;72210;47.076;15.430;2024-01-16T10:05:12;96642.28;;;18.84;19.38
61037;BME280;72210;47.076;15.430;2024-01-16T10:07:42;96644.72;;;18.69;19.55
61037;BME280;72210;47.076;15.430;2024-01-16T10:10:11;96645.69;;;18.60;20.03
61037;BME280;72210;47.076;15.430;2024-01-16T10:12:40;96625.66;;;18.92;19.19
61037;BME280;72210;47.076;15.430;2024-01-16T10:15:08;96619.44;;;19.59;19.33
61037;BME280;72210;47.076;15.430;2024-01-16T10:17:36;96621.72;;;20.42;18.06
61037;BME280;72210;47.076;15.430;2024-01-16T10:20:04;96620.47;;;21.01;17.06
61037;BME280;72210;47.076;15.430;2024-01-16T10:22:32;96620.06;;;21.59;17.11
61037;BME280;72210;47.076;15.430;2024-01-16T10:25:08;96608.25;;;22.14;16.50
61037;BME280;72210;47.076;15.430;2024-01-16T10:27:39;96608.06;;;22.31;15.69
61037;BME280;72210;47.076;15.430;2024-01-16T10:30:08;96608.50;;;22.04;15.69
61037;BME280;72210;47.076;15.430;2024-01-16T10:32:36;96603.75;;;21.85;16.25
61037;BME280;72210;47.076;15.430;2024-01-16T10:35:06;96602.25;;;22.72;15.43
61037;BME280;72210;47.076;15.430;2024-01-16T10:37:43;96606.34;;;23.82;15.16
61037;BME280;72210;47.076;15.430;2024-01-16T10:40:15;96603.88;;;24.51;14.75
61037;BME280;72210;47.076;15.430;2024-01-16T10:42:44;96610.63;;;24.47;14.60
61037;BME280;72210;47.076;15.430;2024-01-16T10:45:16;96601.34;;;23.01;14.64
61037;BME280;72210;47.076;15.430;2024-01-16T10:47:46;96606.38;;;21.47;15.62
61037;BME280;72210;47.076;15.430;2024-01-16T10:50:13;96606.50;;;20.44;15.91
61037;BME280;72210;47.076;15.430;2024-01-16T10:52:46;96614.16;;;19.75;16.50
61037;BME280;72210;47.076;15.430;2024-01-16T10:55:19;96605.44;;;19.33;16.78
61037;BME280;72210;47.076;15.430;2024-01-16T10:57:49;96598.66;;;19.31;16.49
61037;BME280;72210;47.076;15.430;2024-01-16T11:00:19;96599.19;;;20.23;15.86
61037;BME280;72210;47.076;15.430;2024-01-16T11:02:50;96593.59;;;21.12;14.87
61037;BME280;72210;47.076;15.430;2024-01-16T11:05:20;96585.19;;;22.00;14.69
61037;BME280;72210;47.076;15.430;2024-01-16T11:07:54;96577.50;;;23.08;13.99
61037;BME280;72210;47.076;15.430;2024-01-16T11:10:22;96584.78;;;24.34;14.04
61037;BME280;72210;47.076;15.430;2024-01-16T11:12:52;96574.63;;;25.46;12.96
61037;BME280;72210;47.076;15.430;2024-01-16T11:15:21;96576.00;;;26.15;12.56
61037;BME280;72210;47.076;15.430;2024-01-16T11:17:49;96569.13;;;26.40;12.78
61037;BME280;72210;47.076;15.430;2024-01-16T11:20:18;96570.78;;;26.93;12.51
61037;BME280;72210;47.076;15.430;2024-01-16T11:23:07;96573.75;;;27.85;11.93
61037;BME280;72210;47.076;15.430;2024-01-16T11:25:34;96571.72;;;28.43;10.96
61037;BME280;72210;47.076;15.430;2024-01-16T11:28:11;96563.66;;;27.87;11.25
61037;BME280;72210;47.076;15.430;2024-01-16T11:30:39;96558.19;;;27.57;11.50
61037;BME280;72210;47.076;15.430;2024-01-16T11:33:41;96575.66;;;27.28;11.51
61037;BME280;72210;47.076;15.430;2024-01-16T11:36:43;96560.09;;;27.93;11.40
61037;BME280;72210;47.076;15.430;2024-01-16T11:39:17;96551.16;;;28.25;10.34
61037;BME280;72210;47.076;15.430;2024-01-16T11:41:52;96547.84;;;28.23;11.29
61037;BME280;72210;47.076;15.430;2024-01-16T11:44:44;96553.38;;;28.28;10.60
61037;BME280;72210;47.076;15.430;2024-01-16T11:47:16;96553.22;;;27.35;11.85
61037;BME280;72210;47.076;15.430;2024-01-16T11:49:46;96543.75;;;26.69;12.29
61037;BME280;72210;47.076;15.430;2024-01-16T11:52:14;96540.78;;;25.13;12.21
61037;BME280;72210;47.076;15.430;2024-01-16T11:54:43;96547.91;;;24.24;13.18
61037;BME280;72210;47.076;15.430;2024-01-16T11:57:44;96532.16;;;25.18;12.69
61037;BME280;72210;47.076;15.430;2024-01-16T12:00:20;96537.91;;;25.68;12.47
61037;BME280;72210;47.076;15.430;2024-01-16T12:02:56;96529.13;;;25.48;12.51
61037;BME280;72210;47.076;15.430;2024-01-16T12:05:24;96528.47;;;25.12;12.91
61037;BME280;72210;47.076;15.430;2024-01-16T12:07:53;96523.84;;;23.97;13.39
61037;BME280;72210;47.076;15.430;2024-01-16T12:10:22;96522.19;;;22.32;14.05
61037;BME280;72210;47.076;15.430;2024-01-16T12:12:50;96524.72;;;20.74;15.07
61037;BME280;72210;47.076;15.430;2024-01-16T12:15:20;96519.66;;;18.96;15.57
61037;BME280;72210;47.076;15.430;2024-01-16T12:17:55;96524.00;;;17.61;16.99
61037;BME280;72210;47.076;15.430;2024-01-16T12:20:28;96516.13;;;16.91;17.65
61037;BME280;72210;47.076;15.430;2024-01-16T12:22:57;96521.88;;;16.22;17.85
61037;BME280;72210;47.076;15.430;2024-01-16T12:25:25;96518.53;;;14.78;19.44
61037;BME280;72210;47.076;15.430;2024-01-16T12:28:13;96510.34;;;13.41;20.47
61037;BME280;72210;47.076;15.430;2024-01-16T12:30:51;96508.06;;;12.20;21.18
61037;BME280;72210;47.076;15.430;2024-01-16T12:33:21;96510.84;;;11.39;22.04
61037;BME280;72210;47.076;15.430;2024-01-16T12:35:49;96507.19;;;10.84;22.45
61037;BME280;72210;47.076;15.430;2024-01-16T12:38:17;96509.06;;;10.46;22.67
61037;BME280;72210;47.076;15.430;2024-01-16T12:40:47;96503.75;;;9.86;22.01
61037;BME280;72210;47.076;15.430;2024-01-16T12:43:18;96503.13;;;9.33;24.36
61037;BME280;72210;47.076;15.430;2024-01-16T12:45:45;96501.66;;;8.90;24.30
61037;BME280;72210;47.076;15.430;2024-01-16T12:48:22;96497.84;;;8.56;24.24
61037;BME280;72210;47.076;15.430;2024-01-16T12:50:50;96493.28;;;8.32;24.15
61037;BME280;72210;47.076;15.430;2024-01-16T12:53:21;96498.78;;;8.00;25.09
61037;BME280;72210;47.076;15.430;2024-01-16T12:55:57;96491.34;;;7.67;25.22